Gabriella — OJHP — position and weather

sailwx.info

Track history (hours):
 
Tides and Currents Weather Stations Pressure Air Temp Water Temp Dewpoint Dewpoint Depression Visibility Wind Speed Wind Dir Waves Ship Positions

Gabriella

Last reported at 2018-Feb-24 12:00 UTC. Time now 2018-Feb-24 12:07 UTC.
Position N 60°10' E 024°58'.

Length 172 m; draft 6.5 m.

Type: Passenger vessel. MMSI: 230361000.

Date/timePositionNaut miles runAvg speedWind from/ knotsBaromVisibWave heightAir tempDewpointWater temp
2018-Feb-24 12:00N 60°10' E 024°58'0 0.0
2018-Feb-24 11:30N 60°10' E 024°58'0 0.0
2018-Feb-24 11:00N 60°10' E 024°58'0 0.0
2018-Feb-24 10:31N 60°10' E 024°58'0 0.0
2018-Feb-24 09:54N 60°10' E 024°58'0 0.0
2018-Feb-24 09:24N 60°10' E 024°58'0 0.0
2018-Feb-24 09:00N 60°10' E 024°58'0 0.0
2018-Feb-24 08:24N 60°10' E 024°58'0 0.2
2018-Feb-24 08:00N 60°10' E 024°58'5 9.0
2018-Feb-24 07:30N 60°05' E 024°58'917.3
2018-Feb-24 07:00N 59°58' E 024°50'918.4
2018-Feb-24 06:30N 59°53' E 024°34'1018.1
2018-Feb-24 05:58N 59°49' E 024°17'918.4
2018-Feb-24 05:30N 59°47' E 024°00'1019.2
2018-Feb-24 05:00N 59°44' E 023°42'918.4
2018-Feb-24 04:30N 59°42' E 023°24'918.4
2018-Feb-24 04:00N 59°40' E 023°06'2318.4
2018-Feb-24 02:46N 59°35' E 022°22'718.4
2018-Feb-24 02:23N 59°33' E 022°08'617.4
2018-Feb-24 02:00N 59°32' E 021°56'918.1
2018-Feb-24 01:30N 59°32' E 021°38'918.4
2018-Feb-24 01:01N 59°34' E 021°20'5214.3
2018-Feb-23 21:21N 60°04' E 019°56'716.6
2018-Feb-23 20:57N 59°59' E 019°48'817.8
2018-Feb-23 20:30N 59°53' E 019°36'817.3
2018-Feb-23 20:00N 59°47' E 019°25'917.1
2018-Feb-23 19:31N 59°44' E 019°09'816.1
2018-Feb-23 19:00N 59°40' E 018°55'611.1
2018-Feb-23 18:30N 59°36' E 018°47'611.4
2018-Feb-23 18:00N 59°33' E 018°37'510.0
2018-Feb-23 17:28N 59°30' E 018°28'510.9
2018-Feb-23 16:59N 59°25' E 018°24'4 8.1
2018-Feb-23 16:31N 59°22' E 018°25'510.5
2018-Feb-23 16:00N 59°21' E 018°14'5 9.5
2018-Feb-23 15:30N 59°19' E 018°06'0 0.0
2018-Feb-23 14:57N 59°19' E 018°06'0 0.0
2018-Feb-23 14:30N 59°19' E 018°06'0 0.0
2018-Feb-23 14:00N 59°19' E 018°06'0 0.0
2018-Feb-23 13:30N 59°19' E 018°06'0 0.0
2018-Feb-23 13:00N 59°19' E 018°06'0 0.0
2018-Feb-23 12:30N 59°19' E 018°06'0 0.0
2018-Feb-23 12:00N 59°19' E 018°06'0 0.0
2018-Feb-23 11:30N 59°19' E 018°06'0 0.0
2018-Feb-23 11:00N 59°19' E 018°06'0 0.0
2018-Feb-23 10:30N 59°19' E 018°06'0 0.0
2018-Feb-23 10:00N 59°19' E 018°06'0 0.0
2018-Feb-23 09:30N 59°19' E 018°06'0 0.0
2018-Feb-23 09:00N 59°19' E 018°06'2 4.8
2018-Feb-23 08:30N 59°19' E 018°11'611.1
2018-Feb-23 08:00N 59°23' E 018°20'4 7.6
2018-Feb-23 07:30N 59°23' E 018°27'5 9.2
2018-Feb-23 07:00N 59°28' E 018°26'510.8
2018-Feb-23 06:30N 59°32' E 018°33'510.5
2018-Feb-23 06:01N 59°35' E 018°41'612.2
2018-Feb-23 05:31N 59°38' E 018°51'611.5
2018-Feb-23 05:00N 59°41' E 019°00'814.8
2018-Feb-23 04:30N 59°45' E 019°14'714.9
2018-Feb-23 04:00N 59°48' E 019°27'815.1
2018-Feb-23 03:30N 59°54' E 019°37'13 9.5
2018-Feb-23 02:05N 60°04' E 019°55'216.9
2018-Feb-23 02:00N 60°02' E 019°53'4316.0
2018-Feb-22 23:21N 59°37' E 021°02'617.2
2018-Feb-22 23:00N 59°36' E 021°13'917.2
2018-Feb-22 22:31N 59°34' E 021°30'1117.2
2018-Feb-22 21:51N 59°32' E 021°52'817.4
2018-Feb-22 21:22N 59°34' E 022°08'2617.4
2018-Feb-22 19:51N 59°39' E 022°59'617.3
2018-Feb-22 19:30N 59°40' E 023°11'917.3
2018-Feb-22 19:01N 59°42' E 023°27'917.3
2018-Feb-22 18:31N 59°44' E 023°44'917.3
2018-Feb-22 18:01N 59°47' E 024°00'917.4
2018-Feb-22 17:28N 59°50' E 024°18'817.3
2018-Feb-22 16:59N 59°53' E 024°33'817.3
2018-Feb-22 16:30N 59°57' E 024°47'816.2
2018-Feb-22 16:01N 60°03' E 024°58'612.7
2018-Feb-22 15:30N 60°10' E 024°58'0 0.2
2018-Feb-22 14:59N 60°10' E 024°58'0 0.0
2018-Feb-22 14:26N 60°10' E 024°58'0 0.0
2018-Feb-22 13:59N 60°10' E 024°58'0 0.0
2018-Feb-22 13:26N 60°10' E 024°58'0 0.0
2018-Feb-22 12:59N 60°10' E 024°58'0 0.0
2018-Feb-22 12:29N 60°10' E 024°58'0 0.0
2018-Feb-22 11:59N 60°10' E 024°58'0 0.0
2018-Feb-22 11:26N 60°10' E 024°58'0 0.0
2018-Feb-22 10:59N 60°10' E 024°58'0 0.0
2018-Feb-22 10:29N 60°10' E 024°58'0 0.0
2018-Feb-22 09:59N 60°10' E 024°58'0 0.0
2018-Feb-22 09:29N 60°10' E 024°58'0 0.0
2018-Feb-22 08:56N 60°10' E 024°58'0 0.0
2018-Feb-22 08:29N 60°10' E 024°58'0 0.1
2018-Feb-22 08:00N 60°10' E 024°58'5 9.5
2018-Feb-22 07:30N 60°05' E 024°58'917.2
2018-Feb-22 07:00N 59°58' E 024°50'918.0
2018-Feb-22 06:30N 59°53' E 024°34'918.4
2018-Feb-22 06:00N 59°49' E 024°17'918.5
2018-Feb-22 05:30N 59°47' E 023°60'918.5
2018-Feb-22 05:00N 59°45' E 023°42'918.5
2018-Feb-22 04:30N 59°43' E 023°24'918.3
2018-Feb-22 04:00N 59°41' E 023°06'2318.3
2018-Feb-22 02:44N 59°36' E 022°22'418.4
2018-Feb-22 02:30N 59°35' E 022°13'918.4
2018-Feb-22 02:00N 59°32' E 021°56'918.4
2018-Feb-22 01:30N 59°32' E 021°38'918.4
2018-Feb-22 01:00N 59°34' E 021°20'5214.3
2018-Feb-21 21:21N 60°04' E 019°55'715.1
2018-Feb-21 20:54N 59°59' E 019°47'616.4
2018-Feb-21 20:30N 59°54' E 019°38'817.0
2018-Feb-21 20:00N 59°48' E 019°26'816.6
2018-Feb-21 19:30N 59°44' E 019°12'816.5
2018-Feb-21 19:00N 59°40' E 018°58'611.3
2018-Feb-21 18:31N 59°37' E 018°49'612.2
2018-Feb-21 18:00N 59°34' E 018°38'710.1
2018-Feb-21 17:20N 59°30' E 018°28'411.9
2018-Feb-21 17:00N 59°26' E 018°24'510.4
2018-Feb-21 16:30N 59°21' E 018°26'510.8
2018-Feb-21 16:00N 59°22' E 018°15'510.7
2018-Feb-21 15:30N 59°19' E 018°06'0 0.4
2018-Feb-21 15:00N 59°19' E 018°06'0 0.0
2018-Feb-21 14:30N 59°19' E 018°06'0 0.0
2018-Feb-21 14:00N 59°19' E 018°06'0 0.0
2018-Feb-21 13:30N 59°19' E 018°06'0 0.0
2018-Feb-21 13:00N 59°19' E 018°06'0 0.0
2018-Feb-21 12:30N 59°19' E 018°06'0 0.0
2018-Feb-21 12:00N 59°19' E 018°06'0 0.0
2018-Feb-21 11:30N 59°19' E 018°06'0 0.0
2018-Feb-21 11:00N 59°19' E 018°06'0 0.0
2018-Feb-21 10:30N 59°19' E 018°06'0 0.0
2018-Feb-21 10:00N 59°19' E 018°06'0 0.0
2018-Feb-21 09:30N 59°19' E 018°06'0 0.0
2018-Feb-21 08:58N 59°19' E 018°06'2 5.1
2018-Feb-21 08:31N 59°19' E 018°10'611.6
2018-Feb-21 08:00N 59°23' E 018°20'3 6.9
2018-Feb-21 07:30N 59°24' E 018°27'4 8.8
2018-Feb-21 07:01N 59°28' E 018°26'510.3
2018-Feb-21 06:30N 59°32' E 018°33'510.5
2018-Feb-21 06:01N 59°35' E 018°41'612.2
2018-Feb-21 05:31N 59°38' E 018°52'611.5
2018-Feb-21 05:00N 59°41' E 019°01'715.0
2018-Feb-21 04:31N 59°45' E 019°14'715.0
2018-Feb-21 04:01N 59°48' E 019°27'815.2
2018-Feb-21 03:30N 59°54' E 019°37'1410.1
2018-Feb-21 02:08N 60°04' E 019°55'214.8
2018-Feb-21 02:00N 60°03' E 019°53'4416.0
2018-Feb-20 23:15N 59°37' E 021°04'417.1
2018-Feb-20 23:00N 59°36' E 021°13'817.1
2018-Feb-20 22:30N 59°34' E 021°29'1217.1
2018-Feb-20 21:49N 59°32' E 021°52'3417.4
2018-Feb-20 19:51N 59°38' E 022°59'617.4
2018-Feb-20 19:30N 59°40' E 023°10'917.2
2018-Feb-20 19:00N 59°42' E 023°27'917.3
2018-Feb-20 18:30N 59°44' E 023°43'917.2
2018-Feb-20 18:00N 59°47' E 023°59'917.2
2018-Feb-20 17:30N 59°49' E 024°16'917.2
2018-Feb-20 16:58N 59°53' E 024°33'817.2
2018-Feb-20 16:30N 59°57' E 024°46'816.3
2018-Feb-20 16:00N 60°03' E 024°57'713.7
2018-Feb-20 15:30N 60°10' E 024°58'0 0.4
2018-Feb-20 14:59N 60°10' E 024°58'0 0.0
2018-Feb-20 14:26N 60°10' E 024°58'0 0.0
2018-Feb-20 13:59N 60°10' E 024°58'0 0.0
2018-Feb-20 13:29N 60°10' E 024°58'0 0.0
2018-Feb-20 12:59N 60°10' E 024°58'0 0.0
2018-Feb-20 12:29N 60°10' E 024°58'0 0.0
2018-Feb-20 11:59N 60°10' E 024°58'0 0.0
2018-Feb-20 11:26N 60°10' E 024°58'0 0.0
2018-Feb-20 10:59N 60°10' E 024°58'0 0.0
2018-Feb-20 10:29N 60°10' E 024°58'0 0.0
2018-Feb-20 09:59N 60°10' E 024°58'0 0.0
2018-Feb-20 09:29N 60°10' E 024°58'0 0.0
2018-Feb-20 08:59N 60°10' E 024°58'0 0.0
2018-Feb-20 08:29N 60°10' E 024°58'0 0.1
2018-Feb-20 08:00N 60°10' E 024°58'510.2
2018-Feb-20 07:30N 60°05' E 024°58'816.9
2018-Feb-20 07:00N 59°58' E 024°49'1118.6
2018-Feb-20 06:25N 59°52' E 024°30'818.2
2018-Feb-20 06:00N 59°49' E 024°16'918.4
2018-Feb-20 05:30N 59°47' E 023°59'918.5
2018-Feb-20 05:00N 59°44' E 023°41'918.3
2018-Feb-20 04:30N 59°42' E 023°24'918.3
2018-Feb-20 04:00N 59°40' E 023°06'2918.4
2018-Feb-20 02:27N 59°34' E 022°10'818.4
2018-Feb-20 02:00N 59°32' E 021°55'918.3
2018-Feb-20 01:30N 59°33' E 021°37'918.4
2018-Feb-20 01:00N 59°35' E 021°19'5113.4
2018-Feb-19 21:11N 60°02' E 019°53'316.8
2018-Feb-19 21:00N 59°60' E 019°49'817.0
2018-Feb-19 20:30N 59°54' E 019°37'817.0
2018-Feb-19 20:00N 59°48' E 019°25'816.5
2018-Feb-19 19:31N 59°44' E 019°11'816.2
2018-Feb-19 19:00N 59°40' E 018°56'510.4
2018-Feb-19 18:30N 59°37' E 018°48'611.9
2018-Feb-19 18:00N 59°34' E 018°38'710.0
2018-Feb-19 17:21N 59°30' E 018°28'412.0
2018-Feb-19 17:00N 59°26' E 018°24'510.3
2018-Feb-19 16:30N 59°21' E 018°27'510.1
2018-Feb-19 16:00N 59°22' E 018°17'510.8
2018-Feb-19 15:30N 59°19' E 018°07'1 1.5
2018-Feb-19 14:59N 59°19' E 018°06'0 0.0
2018-Feb-19 14:30N 59°19' E 018°06'0 0.0
2018-Feb-19 14:00N 59°19' E 018°06'0 0.0
2018-Feb-19 13:30N 59°19' E 018°06'0 0.0
2018-Feb-19 13:00N 59°19' E 018°06'0 0.0
2018-Feb-19 12:30N 59°19' E 018°06'0 0.0
2018-Feb-19 12:00N 59°19' E 018°06'0 0.0
2018-Feb-19 11:30N 59°19' E 018°06'0 0.0
2018-Feb-19 11:00N 59°19' E 018°06'0 0.0
2018-Feb-19 10:30N 59°19' E 018°06'0 0.0
2018-Feb-19 10:00N 59°19' E 018°06'0 0.0
2018-Feb-19 09:30N 59°19' E 018°06'0 0.0
2018-Feb-19 09:00N 59°19' E 018°06'3 5.6
2018-Feb-19 08:30N 59°20' E 018°11'611.5
2018-Feb-19 08:00N 59°23' E 018°21'3 6.2
2018-Feb-19 07:31N 59°24' E 018°27'4 8.4
2018-Feb-19 07:00N 59°28' E 018°26'510.6
2018-Feb-19 06:30N 59°32' E 018°33'510.5
2018-Feb-19 06:00N 59°35' E 018°41'612.2
2018-Feb-19 05:30N 59°38' E 018°51'611.2
2018-Feb-19 05:00N 59°41' E 019°00'815.2
2018-Feb-19 04:30N 59°45' E 019°14'815.1
2018-Feb-19 04:00N 59°49' E 019°27'815.4
2018-Feb-19 03:30N 59°54' E 019°38'13 9.1
2018-Feb-19 02:05N 60°04' E 019°55'116.2
2018-Feb-19 02:00N 60°03' E 019°53'4316.0
2018-Feb-18 23:18N 59°37' E 021°03'517.3
2018-Feb-18 23:00N 59°36' E 021°13'917.3
2018-Feb-18 22:30N 59°34' E 021°30'1217.2
2018-Feb-18 21:48N 59°32' E 021°53'3517.3
2018-Feb-18 19:46N 59°39' E 023°01'517.3
2018-Feb-18 19:30N 59°40' E 023°10'917.3
2018-Feb-18 19:00N 59°42' E 023°27'917.3
2018-Feb-18 18:30N 59°44' E 023°44'917.3
2018-Feb-18 18:00N 59°46' E 024°00'917.3
2018-Feb-18 17:30N 59°49' E 024°17'917.3
2018-Feb-18 16:57N 59°53' E 024°34'817.3
2018-Feb-18 16:30N 59°57' E 024°47'917.1
2018-Feb-18 16:00N 60°04' E 024°58'612.6
2018-Feb-18 15:31N 60°10' E 024°58'0 0.2
2018-Feb-18 14:55N 60°10' E 024°58'0 0.0
2018-Feb-18 14:28N 60°10' E 024°58'0 0.0
2018-Feb-18 13:58N 60°10' E 024°58'0 0.0
2018-Feb-18 13:25N 60°10' E 024°58'0 0.0
2018-Feb-18 12:58N 60°10' E 024°58'0 0.0
2018-Feb-18 12:28N 60°10' E 024°58'0 0.0
2018-Feb-18 11:58N 60°10' E 024°58'0 0.0
2018-Feb-18 11:25N 60°10' E 024°58'0 0.0
2018-Feb-18 10:58N 60°10' E 024°58'0 0.0
2018-Feb-18 10:28N 60°10' E 024°58'0 0.0
2018-Feb-18 09:58N 60°10' E 024°58'0 0.0
2018-Feb-18 09:28N 60°10' E 024°58'0 0.0
2018-Feb-18 08:58N 60°10' E 024°58'0 0.0
2018-Feb-18 08:28N 60°10' E 024°58'0 0.2
2018-Feb-18 08:00N 60°10' E 024°58'510.4
2018-Feb-18 07:31N 60°05' E 024°58'917.3
2018-Feb-18 07:00N 59°57' E 024°49'918.6
2018-Feb-18 06:31N 59°53' E 024°33'918.4
2018-Feb-18 06:00N 59°49' E 024°16'918.3
2018-Feb-18 05:30N 59°47' E 023°58'918.3
2018-Feb-18 05:01N 59°44' E 023°41'918.3
2018-Feb-18 04:31N 59°42' E 023°23'918.2
2018-Feb-18 04:00N 59°40' E 023°06'2518.3
2018-Feb-18 02:39N 59°35' E 022°17'318.3
2018-Feb-18 02:29N 59°34' E 022°12'918.3
2018-Feb-18 02:00N 59°32' E 021°55'918.3
2018-Feb-18 01:30N 59°33' E 021°37'918.4
2018-Feb-18 01:00N 59°34' E 021°19'918.4
2018-Feb-18 00:31N 59°36' E 021°01'4413.9
2018-Feb-17 21:22N 60°04' E 019°56'616.0
2018-Feb-17 20:58N 59°59' E 019°48'817.1
2018-Feb-17 20:30N 59°54' E 019°37'917.2
2018-Feb-17 20:00N 59°47' E 019°25'816.9
2018-Feb-17 19:30N 59°44' E 019°10'816.3
2018-Feb-17 19:01N 59°40' E 018°56'510.7
2018-Feb-17 18:30N 59°36' E 018°47'611.7
2018-Feb-17 18:00N 59°33' E 018°37'610.2
2018-Feb-17 17:23N 59°29' E 018°27'411.5
2018-Feb-17 17:00N 59°26' E 018°23'5 9.2
2018-Feb-17 16:30N 59°21' E 018°26'510.2
2018-Feb-17 16:00N 59°22' E 018°16'510.4
2018-Feb-17 15:30N 59°19' E 018°07'0 0.9
2018-Feb-17 14:58N 59°19' E 018°06'0 0.0
2018-Feb-17 14:28N 59°19' E 018°06'0 0.0
2018-Feb-17 13:58N 59°19' E 018°06'0 0.0
2018-Feb-17 13:28N 59°19' E 018°06'0 0.0
2018-Feb-17 12:58N 59°19' E 018°06'0 0.0
2018-Feb-17 12:28N 59°19' E 018°06'0 0.0
2018-Feb-17 11:58N 59°19' E 018°06'0 0.0
2018-Feb-17 11:28N 59°19' E 018°06'0 0.0
2018-Feb-17 10:58N 59°19' E 018°06'0 0.0
2018-Feb-17 10:28N 59°19' E 018°06'0 0.0
2018-Feb-17 09:58N 59°19' E 018°06'0 0.0
2018-Feb-17 09:28N 59°19' E 018°06'0 0.0
2018-Feb-17 09:00N 59°19' E 018°06'3 5.4
2018-Feb-17 08:30N 59°20' E 018°11'611.6
2018-Feb-17 08:00N 59°23' E 018°21'3 6.3
2018-Feb-17 07:30N 59°24' E 018°27'4 8.4
2018-Feb-17 07:00N 59°28' E 018°26'510.7
2018-Feb-17 06:30N 59°32' E 018°33'510.7
2018-Feb-17 06:00N 59°35' E 018°42'612.1
2018-Feb-17 05:30N 59°38' E 018°52'611.1
2018-Feb-17 05:00N 59°41' E 019°00'815.6
2018-Feb-17 04:30N 59°45' E 019°14'815.4
2018-Feb-17 04:00N 59°49' E 019°27'815.8
2018-Feb-17 03:30N 59°54' E 019°38'13 9.0
2018-Feb-17 02:06N 60°04' E 019°55'215.2
2018-Feb-17 02:00N 60°03' E 019°53'4316.1
2018-Feb-16 23:20N 59°37' E 021°03'617.4
2018-Feb-16 23:01N 59°36' E 021°14'917.4
2018-Feb-16 22:30N 59°34' E 021°31'1317.4
2018-Feb-16 21:46N 59°32' E 021°56'3617.4
2018-Feb-16 19:42N 59°38' E 023°05'517.4
2018-Feb-16 19:26N 59°39' E 023°14'717.3
2018-Feb-16 19:01N 59°41' E 023°28'917.4
2018-Feb-16 18:31N 59°44' E 023°45'917.3
2018-Feb-16 18:01N 59°46' E 024°01'917.6
2018-Feb-16 17:30N 59°49' E 024°18'917.1
2018-Feb-16 16:57N 59°53' E 024°35'817.3
2018-Feb-16 16:30N 59°57' E 024°48'816.4
2018-Feb-16 16:01N 60°04' E 024°58'611.9
2018-Feb-16 15:31N 60°10' E 024°58'0 0.1
2018-Feb-16 15:00N 60°10' E 024°58'0 0.0
2018-Feb-16 14:30N 60°10' E 024°58'0 0.0
2018-Feb-16 14:00N 60°10' E 024°58'0 0.0
2018-Feb-16 13:28N 60°10' E 024°58'0 0.0
2018-Feb-16 12:58N 60°10' E 024°58'0 0.0
2018-Feb-16 12:28N 60°10' E 024°58'0 0.0
2018-Feb-16 11:58N 60°10' E 024°58'0 0.0
2018-Feb-16 11:28N 60°10' E 024°58'0 0.0
2018-Feb-16 10:58N 60°10' E 024°58'0 0.0
2018-Feb-16 10:28N 60°10' E 024°58'0 0.0
2018-Feb-16 09:58N 60°10' E 024°58'0 0.0
2018-Feb-16 09:28N 60°10' E 024°58'0 0.2
2018-Feb-16 08:58N 60°10' E 024°58'0 0.1
2018-Feb-16 08:28N 60°10' E 024°58'0 0.1
2018-Feb-16 08:00N 60°10' E 024°58'611.7
2018-Feb-16 07:30N 60°04' E 024°58'816.8
2018-Feb-16 07:00N 59°57' E 024°48'1018.3
2018-Feb-16 06:27N 59°52' E 024°31'818.2
2018-Feb-16 06:00N 59°49' E 024°16'918.3
2018-Feb-16 05:30N 59°47' E 023°58'918.3
2018-Feb-16 05:00N 59°44' E 023°41'918.3
2018-Feb-16 04:30N 59°42' E 023°23'918.4
2018-Feb-16 04:00N 59°40' E 023°06'2518.4
2018-Feb-16 02:40N 59°35' E 022°18'318.3
2018-Feb-16 02:30N 59°34' E 022°12'918.4
2018-Feb-16 02:00N 59°32' E 021°54'918.4
2018-Feb-16 01:30N 59°33' E 021°36'918.5
2018-Feb-16 01:01N 59°35' E 021°18'5113.9
2018-Feb-15 21:19N 60°04' E 019°55'616.4
2018-Feb-15 20:58N 59°59' E 019°48'817.2
2018-Feb-15 20:30N 59°54' E 019°37'917.2
2018-Feb-15 20:00N 59°47' E 019°25'917.0
2018-Feb-15 19:30N 59°44' E 019°10'816.1
2018-Feb-15 19:00N 59°40' E 018°56'510.7
2018-Feb-15 18:30N 59°36' E 018°47'611.9
2018-Feb-15 18:00N 59°33' E 018°37'610.1
2018-Feb-15 17:23N 59°30' E 018°28'411.3
2018-Feb-15 17:00N 59°26' E 018°23'4 8.5
2018-Feb-15 16:30N 59°21' E 018°25'510.0
2018-Feb-15 16:01N 59°22' E 018°16'510.3
2018-Feb-15 15:30N 59°19' E 018°07'0 0.8
2018-Feb-15 14:58N 59°19' E 018°06'0 0.0
2018-Feb-15 14:30N 59°19' E 018°06'0 0.0
2018-Feb-15 14:00N 59°19' E 018°06'0 0.0
2018-Feb-15 13:30N 59°19' E 018°06'0 0.0
2018-Feb-15 13:00N 59°19' E 018°06'0 0.0
2018-Feb-15 12:30N 59°19' E 018°06'0 0.0
2018-Feb-15 12:00N 59°19' E 018°06'0 0.0
2018-Feb-15 11:30N 59°19' E 018°06'0 0.0
2018-Feb-15 11:00N 59°19' E 018°06'0 0.0
2018-Feb-15 10:30N 59°19' E 018°06'0 0.0
2018-Feb-15 10:00N 59°19' E 018°06'0 0.0
2018-Feb-15 09:30N 59°19' E 018°06'0 0.0
2018-Feb-15 09:01N 59°19' E 018°06'3 6.4
2018-Feb-15 08:30N 59°20' E 018°12'611.2
2018-Feb-15 08:00N 59°22' E 018°22'3 5.6
2018-Feb-15 07:30N 59°24' E 018°27'3 5.4
2018-Feb-15 07:00N 59°26' E 018°29'611.0
2018-Feb-15 06:29N 59°32' E 018°32'510.3
2018-Feb-15 06:00N 59°35' E 018°40'612.2
2018-Feb-15 05:30N 59°38' E 018°51'510.9
2018-Feb-15 05:00N 59°41' E 018°59'815.8
2018-Feb-15 04:30N 59°44' E 019°13'815.5
2018-Feb-15 04:00N 59°48' E 019°26'815.7
2018-Feb-15 03:30N 59°54' E 019°37'815.8
2018-Feb-15 03:00N 59°60' E 019°48'5 5.9
2018-Feb-15 02:05N 60°04' E 019°55'215.1
2018-Feb-15 01:59N 60°03' E 019°53'4316.2
2018-Feb-14 23:20N 59°37' E 021°03'617.5
2018-Feb-14 23:01N 59°36' E 021°14'917.5
2018-Feb-14 22:31N 59°34' E 021°31'1117.5
2018-Feb-14 21:53N 59°32' E 021°52'917.4
2018-Feb-14 21:21N 59°33' E 022°10'2317.4
2018-Feb-14 20:04N 59°37' E 022°54'417.4
2018-Feb-14 19:50N 59°38' E 023°01'617.4
2018-Feb-14 19:29N 59°39' E 023°13'817.4
2018-Feb-14 19:00N 59°41' E 023°29'917.4
2018-Feb-14 18:31N 59°44' E 023°45'917.4
2018-Feb-14 18:01N 59°47' E 024°02'917.4
2018-Feb-14 17:30N 59°49' E 024°19'917.4
2018-Feb-14 16:59N 59°53' E 024°34'817.4
2018-Feb-14 16:30N 59°58' E 024°49'816.5
2018-Feb-14 16:00N 60°04' E 024°58'510.9
2018-Feb-14 15:31N 60°10' E 024°58'0 0.2
2018-Feb-14 15:00N 60°10' E 024°58'0 0.0
2018-Feb-14 14:30N 60°10' E 024°58'0 0.0
2018-Feb-14 14:00N 60°10' E 024°58'0 0.0
2018-Feb-14 13:30N 60°10' E 024°58'0 0.0
2018-Feb-14 13:00N 60°10' E 024°58'0 0.0
2018-Feb-14 12:30N 60°10' E 024°58'  
Track history (hours):
 
Tides and Currents Weather Stations Pressure Air Temp Water Temp Dewpoint Dewpoint Depression Visibility Wind Speed Wind Dir Waves Ship Positions

Gabriella

Last reported at 2018-Feb-24 12:00 UTC. Time now 2018-Feb-24 12:07 UTC.
Position N 60°10' E 024°58'.

Length 172 m; draft 6.5 m.

Type: Passenger vessel. MMSI: 230361000.

Date/timePositionNaut miles runAvg speedWind from/ knotsBaromVisibWave heightAir tempDewpointWater temp
2018-Feb-24 12:00N 60°10' E 024°58'0 0.0
2018-Feb-24 11:30N 60°10' E 024°58'0 0.0
2018-Feb-24 11:00N 60°10' E 024°58'0 0.0
2018-Feb-24 10:31N 60°10' E 024°58'0 0.0
2018-Feb-24 09:54N 60°10' E 024°58'0 0.0
2018-Feb-24 09:24N 60°10' E 024°58'0 0.0
2018-Feb-24 09:00N 60°10' E 024°58'0 0.0
2018-Feb-24 08:24N 60°10' E 024°58'0 0.2
2018-Feb-24 08:00N 60°10' E 024°58'5 9.0
2018-Feb-24 07:30N 60°05' E 024°58'917.3
2018-Feb-24 07:00N 59°58' E 024°50'918.4
2018-Feb-24 06:30N 59°53' E 024°34'1018.1
2018-Feb-24 05:58N 59°49' E 024°17'918.4
2018-Feb-24 05:30N 59°47' E 024°00'1019.2
2018-Feb-24 05:00N 59°44' E 023°42'918.4
2018-Feb-24 04:30N 59°42' E 023°24'918.4
2018-Feb-24 04:00N 59°40' E 023°06'2318.4
2018-Feb-24 02:46N 59°35' E 022°22'718.4
2018-Feb-24 02:23N 59°33' E 022°08'617.4
2018-Feb-24 02:00N 59°32' E 021°56'918.1
2018-Feb-24 01:30N 59°32' E 021°38'918.4
2018-Feb-24 01:01N 59°34' E 021°20'5214.3
2018-Feb-23 21:21N 60°04' E 019°56'716.6
2018-Feb-23 20:57N 59°59' E 019°48'817.8
2018-Feb-23 20:30N 59°53' E 019°36'817.3
2018-Feb-23 20:00N 59°47' E 019°25'917.1
2018-Feb-23 19:31N 59°44' E 019°09'816.1
2018-Feb-23 19:00N 59°40' E 018°55'611.1
2018-Feb-23 18:30N 59°36' E 018°47'611.4
2018-Feb-23 18:00N 59°33' E 018°37'510.0
2018-Feb-23 17:28N 59°30' E 018°28'510.9
2018-Feb-23 16:59N 59°25' E 018°24'4 8.1
2018-Feb-23 16:31N 59°22' E 018°25'510.5
2018-Feb-23 16:00N 59°21' E 018°14'5 9.5
2018-Feb-23 15:30N 59°19' E 018°06'0 0.0
2018-Feb-23 14:57N 59°19' E 018°06'0 0.0
2018-Feb-23 14:30N 59°19' E 018°06'0 0.0
2018-Feb-23 14:00N 59°19' E 018°06'0 0.0
2018-Feb-23 13:30N 59°19' E 018°06'0 0.0
2018-Feb-23 13:00N 59°19' E 018°06'0 0.0
2018-Feb-23 12:30N 59°19' E 018°06'0 0.0
2018-Feb-23 12:00N 59°19' E 018°06'0 0.0
2018-Feb-23 11:30N 59°19' E 018°06'0 0.0
2018-Feb-23 11:00N 59°19' E 018°06'0 0.0
2018-Feb-23 10:30N 59°19' E 018°06'0 0.0
2018-Feb-23 10:00N 59°19' E 018°06'0 0.0
2018-Feb-23 09:30N 59°19' E 018°06'0 0.0
2018-Feb-23 09:00N 59°19' E 018°06'2 4.8
2018-Feb-23 08:30N 59°19' E 018°11'611.1
2018-Feb-23 08:00N 59°23' E 018°20'4 7.6
2018-Feb-23 07:30N 59°23' E 018°27'5 9.2
2018-Feb-23 07:00N 59°28' E 018°26'510.8
2018-Feb-23 06:30N 59°32' E 018°33'510.5
2018-Feb-23 06:01N 59°35' E 018°41'612.2
2018-Feb-23 05:31N 59°38' E 018°51'611.5
2018-Feb-23 05:00N 59°41' E 019°00'814.8
2018-Feb-23 04:30N 59°45' E 019°14'714.9
2018-Feb-23 04:00N 59°48' E 019°27'815.1
2018-Feb-23 03:30N 59°54' E 019°37'13 9.5
2018-Feb-23 02:05N 60°04' E 019°55'216.9
2018-Feb-23 02:00N 60°02' E 019°53'4316.0
2018-Feb-22 23:21N 59°37' E 021°02'617.2
2018-Feb-22 23:00N 59°36' E 021°13'917.2
2018-Feb-22 22:31N 59°34' E 021°30'1117.2
2018-Feb-22 21:51N 59°32' E 021°52'817.4
2018-Feb-22 21:22N 59°34' E 022°08'2617.4
2018-Feb-22 19:51N 59°39' E 022°59'617.3
2018-Feb-22 19:30N 59°40' E 023°11'917.3
2018-Feb-22 19:01N 59°42' E 023°27'917.3
2018-Feb-22 18:31N 59°44' E 023°44'917.3
2018-Feb-22 18:01N 59°47' E 024°00'917.4
2018-Feb-22 17:28N 59°50' E 024°18'817.3
2018-Feb-22 16:59N 59°53' E 024°33'817.3
2018-Feb-22 16:30N 59°57' E 024°47'816.2
2018-Feb-22 16:01N 60°03' E 024°58'612.7
2018-Feb-22 15:30N 60°10' E 024°58'0 0.2
2018-Feb-22 14:59N 60°10' E 024°58'0 0.0
2018-Feb-22 14:26N 60°10' E 024°58'0 0.0
2018-Feb-22 13:59N 60°10' E 024°58'0 0.0
2018-Feb-22 13:26N 60°10' E 024°58'0 0.0
2018-Feb-22 12:59N 60°10' E 024°58'0 0.0
2018-Feb-22 12:29N 60°10' E 024°58'0 0.0
2018-Feb-22 11:59N 60°10' E 024°58'0 0.0
2018-Feb-22 11:26N 60°10' E 024°58'0 0.0
2018-Feb-22 10:59N 60°10' E 024°58'0 0.0
2018-Feb-22 10:29N 60°10' E 024°58'0 0.0
2018-Feb-22 09:59N 60°10' E 024°58'0 0.0
2018-Feb-22 09:29N 60°10' E 024°58'0 0.0
2018-Feb-22 08:56N 60°10' E 024°58'0 0.0
2018-Feb-22 08:29N 60°10' E 024°58'0 0.1
2018-Feb-22 08:00N 60°10' E 024°58'5 9.5
2018-Feb-22 07:30N 60°05' E 024°58'917.2
2018-Feb-22 07:00N 59°58' E 024°50'918.0
2018-Feb-22 06:30N 59°53' E 024°34'918.4
2018-Feb-22 06:00N 59°49' E 024°17'918.5
2018-Feb-22 05:30N 59°47' E 023°60'918.5
2018-Feb-22 05:00N 59°45' E 023°42'918.5
2018-Feb-22 04:30N 59°43' E 023°24'918.3
2018-Feb-22 04:00N 59°41' E 023°06'2318.3
2018-Feb-22 02:44N 59°36' E 022°22'418.4
2018-Feb-22 02:30N 59°35' E 022°13'918.4
2018-Feb-22 02:00N 59°32' E 021°56'918.4
2018-Feb-22 01:30N 59°32' E 021°38'918.4
2018-Feb-22 01:00N 59°34' E 021°20'5214.3
2018-Feb-21 21:21N 60°04' E 019°55'715.1
2018-Feb-21 20:54N 59°59' E 019°47'616.4
2018-Feb-21 20:30N 59°54' E 019°38'817.0
2018-Feb-21 20:00N 59°48' E 019°26'816.6
2018-Feb-21 19:30N 59°44' E 019°12'816.5
2018-Feb-21 19:00N 59°40' E 018°58'611.3
2018-Feb-21 18:31N 59°37' E 018°49'612.2
2018-Feb-21 18:00N 59°34' E 018°38'710.1
2018-Feb-21 17:20N 59°30' E 018°28'411.9
2018-Feb-21 17:00N 59°26' E 018°24'510.4
2018-Feb-21 16:30N 59°21' E 018°26'510.8
2018-Feb-21 16:00N 59°22' E 018°15'510.7
2018-Feb-21 15:30N 59°19' E 018°06'0 0.4
2018-Feb-21 15:00N 59°19' E 018°06'0 0.0
2018-Feb-21 14:30N 59°19' E 018°06'0 0.0
2018-Feb-21 14:00N 59°19' E 018°06'0 0.0
2018-Feb-21 13:30N 59°19' E 018°06'0 0.0
2018-Feb-21 13:00N 59°19' E 018°06'0 0.0
2018-Feb-21 12:30N 59°19' E 018°06'0 0.0
2018-Feb-21 12:00N 59°19' E 018°06'0 0.0
2018-Feb-21 11:30N 59°19' E 018°06'0 0.0
2018-Feb-21 11:00N 59°19' E 018°06'0 0.0
2018-Feb-21 10:30N 59°19' E 018°06'0 0.0
2018-Feb-21 10:00N 59°19' E 018°06'0 0.0
2018-Feb-21 09:30N 59°19' E 018°06'0 0.0
2018-Feb-21 08:58N 59°19' E 018°06'2 5.1
2018-Feb-21 08:31N 59°19' E 018°10'611.6
2018-Feb-21 08:00N 59°23' E 018°20'3 6.9
2018-Feb-21 07:30N 59°24' E 018°27'4 8.8
2018-Feb-21 07:01N 59°28' E 018°26'510.3
2018-Feb-21 06:30N 59°32' E 018°33'510.5
2018-Feb-21 06:01N 59°35' E 018°41'612.2
2018-Feb-21 05:31N 59°38' E 018°52'611.5
2018-Feb-21 05:00N 59°41' E 019°01'715.0
2018-Feb-21 04:31N 59°45' E 019°14'715.0
2018-Feb-21 04:01N 59°48' E 019°27'815.2
2018-Feb-21 03:30N 59°54' E 019°37'1410.1
2018-Feb-21 02:08N 60°04' E 019°55'214.8
2018-Feb-21 02:00N 60°03' E 019°53'4416.0
2018-Feb-20 23:15N 59°37' E 021°04'417.1
2018-Feb-20 23:00N 59°36' E 021°13'817.1
2018-Feb-20 22:30N 59°34' E 021°29'1217.1
2018-Feb-20 21:49N 59°32' E 021°52'3417.4
2018-Feb-20 19:51N 59°38' E 022°59'617.4
2018-Feb-20 19:30N 59°40' E 023°10'917.2
2018-Feb-20 19:00N 59°42' E 023°27'917.3
2018-Feb-20 18:30N 59°44' E 023°43'917.2
2018-Feb-20 18:00N 59°47' E 023°59'917.2
2018-Feb-20 17:30N 59°49' E 024°16'917.2
2018-Feb-20 16:58N 59°53' E 024°33'817.2
2018-Feb-20 16:30N 59°57' E 024°46'816.3
2018-Feb-20 16:00N 60°03' E 024°57'713.7
2018-Feb-20 15:30N 60°10' E 024°58'0 0.4
2018-Feb-20 14:59N 60°10' E 024°58'0 0.0
2018-Feb-20 14:26N 60°10' E 024°58'0 0.0
2018-Feb-20 13:59N 60°10' E 024°58'0 0.0
2018-Feb-20 13:29N 60°10' E 024°58'0 0.0
2018-Feb-20 12:59N 60°10' E 024°58'0 0.0
2018-Feb-20 12:29N 60°10' E 024°58'0 0.0
2018-Feb-20 11:59N 60°10' E 024°58'0 0.0
2018-Feb-20 11:26N 60°10' E 024°58'0 0.0
2018-Feb-20 10:59N 60°10' E 024°58'0 0.0
2018-Feb-20 10:29N 60°10' E 024°58'0 0.0
2018-Feb-20 09:59N 60°10' E 024°58'0 0.0
2018-Feb-20 09:29N 60°10' E 024°58'0 0.0
2018-Feb-20 08:59N 60°10' E 024°58'0 0.0
2018-Feb-20 08:29N 60°10' E 024°58'0 0.1
2018-Feb-20 08:00N 60°10' E 024°58'510.2
2018-Feb-20 07:30N 60°05' E 024°58'816.9
2018-Feb-20 07:00N 59°58' E 024°49'1118.6
2018-Feb-20 06:25N 59°52' E 024°30'818.2
2018-Feb-20 06:00N 59°49' E 024°16'918.4
2018-Feb-20 05:30N 59°47' E 023°59'918.5
2018-Feb-20 05:00N 59°44' E 023°41'918.3
2018-Feb-20 04:30N 59°42' E 023°24'918.3
2018-Feb-20 04:00N 59°40' E 023°06'2918.4
2018-Feb-20 02:27N 59°34' E 022°10'818.4
2018-Feb-20 02:00N 59°32' E 021°55'918.3
2018-Feb-20 01:30N 59°33' E 021°37'918.4
2018-Feb-20 01:00N 59°35' E 021°19'5113.4
2018-Feb-19 21:11N 60°02' E 019°53'316.8
2018-Feb-19 21:00N 59°60' E 019°49'817.0
2018-Feb-19 20:30N 59°54' E 019°37'817.0
2018-Feb-19 20:00N 59°48' E 019°25'816.5
2018-Feb-19 19:31N 59°44' E 019°11'816.2
2018-Feb-19 19:00N 59°40' E 018°56'510.4
2018-Feb-19 18:30N 59°37' E 018°48'611.9
2018-Feb-19 18:00N 59°34' E 018°38'710.0
2018-Feb-19 17:21N 59°30' E 018°28'412.0
2018-Feb-19 17:00N 59°26' E 018°24'510.3
2018-Feb-19 16:30N 59°21' E 018°27'510.1
2018-Feb-19 16:00N 59°22' E 018°17'510.8
2018-Feb-19 15:30N 59°19' E 018°07'1 1.5
2018-Feb-19 14:59N 59°19' E 018°06'0 0.0
2018-Feb-19 14:30N 59°19' E 018°06'0 0.0
2018-Feb-19 14:00N 59°19' E 018°06'0 0.0
2018-Feb-19 13:30N 59°19' E 018°06'0 0.0
2018-Feb-19 13:00N 59°19' E 018°06'0 0.0
2018-Feb-19 12:30N 59°19' E 018°06'0 0.0
2018-Feb-19 12:00N 59°19' E 018°06'0 0.0
2018-Feb-19 11:30N 59°19' E 018°06'0 0.0
2018-Feb-19 11:00N 59°19' E 018°06'0 0.0
2018-Feb-19 10:30N 59°19' E 018°06'0 0.0
2018-Feb-19 10:00N 59°19' E 018°06'0 0.0
2018-Feb-19 09:30N 59°19' E 018°06'0 0.0
2018-Feb-19 09:00N 59°19' E 018°06'3 5.6
2018-Feb-19 08:30N 59°20' E 018°11'611.5
2018-Feb-19 08:00N 59°23' E 018°21'3 6.2
2018-Feb-19 07:31N 59°24' E 018°27'4 8.4
2018-Feb-19 07:00N 59°28' E 018°26'510.6
2018-Feb-19 06:30N 59°32' E 018°33'510.5
2018-Feb-19 06:00N 59°35' E 018°41'612.2
2018-Feb-19 05:30N 59°38' E 018°51'611.2
2018-Feb-19 05:00N 59°41' E 019°00'815.2
2018-Feb-19 04:30N 59°45' E 019°14'815.1
2018-Feb-19 04:00N 59°49' E 019°27'815.4
2018-Feb-19 03:30N 59°54' E 019°38'13 9.1
2018-Feb-19 02:05N 60°04' E 019°55'116.2
2018-Feb-19 02:00N 60°03' E 019°53'4316.0
2018-Feb-18 23:18N 59°37' E 021°03'517.3
2018-Feb-18 23:00N 59°36' E 021°13'917.3
2018-Feb-18 22:30N 59°34' E 021°30'1217.2
2018-Feb-18 21:48N 59°32' E 021°53'3517.3
2018-Feb-18 19:46N 59°39' E 023°01'517.3
2018-Feb-18 19:30N 59°40' E 023°10'917.3
2018-Feb-18 19:00N 59°42' E 023°27'917.3
2018-Feb-18 18:30N 59°44' E 023°44'917.3
2018-Feb-18 18:00N 59°46' E 024°00'917.3
2018-Feb-18 17:30N 59°49' E 024°17'917.3
2018-Feb-18 16:57N 59°53' E 024°34'817.3
2018-Feb-18 16:30N 59°57' E 024°47'917.1
2018-Feb-18 16:00N 60°04' E 024°58'612.6
2018-Feb-18 15:31N 60°10' E 024°58'0 0.2
2018-Feb-18 14:55N 60°10' E 024°58'0 0.0
2018-Feb-18 14:28N 60°10' E 024°58'0 0.0
2018-Feb-18 13:58N 60°10' E 024°58'0 0.0
2018-Feb-18 13:25N 60°10' E 024°58'0 0.0
2018-Feb-18 12:58N 60°10' E 024°58'0 0.0
2018-Feb-18 12:28N 60°10' E 024°58'0 0.0
2018-Feb-18 11:58N 60°10' E 024°58'0 0.0
2018-Feb-18 11:25N 60°10' E 024°58'0 0.0
2018-Feb-18 10:58N 60°10' E 024°58'0 0.0
2018-Feb-18 10:28N 60°10' E 024°58'0 0.0
2018-Feb-18 09:58N 60°10' E 024°58'0 0.0
2018-Feb-18 09:28N 60°10' E 024°58'0 0.0
2018-Feb-18 08:58N 60°10' E 024°58'0 0.0
2018-Feb-18 08:28N 60°10' E 024°58'0 0.2
2018-Feb-18 08:00N 60°10' E 024°58'510.4
2018-Feb-18 07:31N 60°05' E 024°58'917.3
2018-Feb-18 07:00N 59°57' E 024°49'918.6
2018-Feb-18 06:31N 59°53' E 024°33'918.4
2018-Feb-18 06:00N 59°49' E 024°16'918.3
2018-Feb-18 05:30N 59°47' E 023°58'918.3
2018-Feb-18 05:01N 59°44' E 023°41'918.3
2018-Feb-18 04:31N 59°42' E 023°23'918.2
2018-Feb-18 04:00N 59°40' E 023°06'2518.3
2018-Feb-18 02:39N 59°35' E 022°17'318.3
2018-Feb-18 02:29N 59°34' E 022°12'918.3
2018-Feb-18 02:00N 59°32' E 021°55'918.3
2018-Feb-18 01:30N 59°33' E 021°37'918.4
2018-Feb-18 01:00N 59°34' E 021°19'918.4
2018-Feb-18 00:31N 59°36' E 021°01'4413.9
2018-Feb-17 21:22N 60°04' E 019°56'616.0
2018-Feb-17 20:58N 59°59' E 019°48'817.1
2018-Feb-17 20:30N 59°54' E 019°37'917.2
2018-Feb-17 20:00N 59°47' E 019°25'816.9
2018-Feb-17 19:30N 59°44' E 019°10'816.3
2018-Feb-17 19:01N 59°40' E 018°56'510.7
2018-Feb-17 18:30N 59°36' E 018°47'611.7
2018-Feb-17 18:00N 59°33' E 018°37'610.2
2018-Feb-17 17:23N 59°29' E 018°27'411.5
2018-Feb-17 17:00N 59°26' E 018°23'5 9.2
2018-Feb-17 16:30N 59°21' E 018°26'510.2
2018-Feb-17 16:00N 59°22' E 018°16'510.4
2018-Feb-17 15:30N 59°19' E 018°07'0 0.9
2018-Feb-17 14:58N 59°19' E 018°06'0 0.0
2018-Feb-17 14:28N 59°19' E 018°06'0 0.0
2018-Feb-17 13:58N 59°19' E 018°06'0 0.0
2018-Feb-17 13:28N 59°19' E 018°06'0 0.0
2018-Feb-17 12:58N 59°19' E 018°06'0 0.0
2018-Feb-17 12:28N 59°19' E 018°06'0 0.0
2018-Feb-17 11:58N 59°19' E 018°06'0 0.0
2018-Feb-17 11:28N 59°19' E 018°06'0 0.0
2018-Feb-17 10:58N 59°19' E 018°06'0 0.0
2018-Feb-17 10:28N 59°19' E 018°06'0 0.0
2018-Feb-17 09:58N 59°19' E 018°06'0 0.0
2018-Feb-17 09:28N 59°19' E 018°06'0 0.0
2018-Feb-17 09:00N 59°19' E 018°06'3 5.4
2018-Feb-17 08:30N 59°20' E 018°11'611.6
2018-Feb-17 08:00N 59°23' E 018°21'3 6.3
2018-Feb-17 07:30N 59°24' E 018°27'4 8.4
2018-Feb-17 07:00N 59°28' E 018°26'510.7
2018-Feb-17 06:30N 59°32' E 018°33'510.7
2018-Feb-17 06:00N 59°35' E 018°42'612.1
2018-Feb-17 05:30N 59°38' E 018°52'611.1
2018-Feb-17 05:00N 59°41' E 019°00'815.6
2018-Feb-17 04:30N 59°45' E 019°14'815.4
2018-Feb-17 04:00N 59°49' E 019°27'815.8
2018-Feb-17 03:30N 59°54' E 019°38'13 9.0
2018-Feb-17 02:06N 60°04' E 019°55'215.2
2018-Feb-17 02:00N 60°03' E 019°53'4316.1
2018-Feb-16 23:20N 59°37' E 021°03'617.4
2018-Feb-16 23:01N 59°36' E 021°14'917.4
2018-Feb-16 22:30N 59°34' E 021°31'1317.4
2018-Feb-16 21:46N 59°32' E 021°56'3617.4
2018-Feb-16 19:42N 59°38' E 023°05'517.4
2018-Feb-16 19:26N 59°39' E 023°14'717.3
2018-Feb-16 19:01N 59°41' E 023°28'917.4
2018-Feb-16 18:31N 59°44' E 023°45'917.3
2018-Feb-16 18:01N 59°46' E 024°01'917.6
2018-Feb-16 17:30N 59°49' E 024°18'917.1
2018-Feb-16 16:57N 59°53' E 024°35'817.3
2018-Feb-16 16:30N 59°57' E 024°48'816.4
2018-Feb-16 16:01N 60°04' E 024°58'611.9
2018-Feb-16 15:31N 60°10' E 024°58'0 0.1
2018-Feb-16 15:00N 60°10' E 024°58'0 0.0
2018-Feb-16 14:30N 60°10' E 024°58'0 0.0
2018-Feb-16 14:00N 60°10' E 024°58'0 0.0
2018-Feb-16 13:28N 60°10' E 024°58'0 0.0
2018-Feb-16 12:58N 60°10' E 024°58'0 0.0
2018-Feb-16 12:28N 60°10' E 024°58'0 0.0
2018-Feb-16 11:58N 60°10' E 024°58'0 0.0
2018-Feb-16 11:28N 60°10' E 024°58'0 0.0
2018-Feb-16 10:58N 60°10' E 024°58'0 0.0
2018-Feb-16 10:28N 60°10' E 024°58'0 0.0
2018-Feb-16 09:58N 60°10' E 024°58'0 0.0
2018-Feb-16 09:28N 60°10' E 024°58'0 0.2
2018-Feb-16 08:58N 60°10' E 024°58'0 0.1
2018-Feb-16 08:28N 60°10' E 024°58'0 0.1
2018-Feb-16 08:00N 60°10' E 024°58'611.7
2018-Feb-16 07:30N 60°04' E 024°58'816.8
2018-Feb-16 07:00N 59°57' E 024°48'1018.3
2018-Feb-16 06:27N 59°52' E 024°31'818.2
2018-Feb-16 06:00N 59°49' E 024°16'918.3
2018-Feb-16 05:30N 59°47' E 023°58'918.3
2018-Feb-16 05:00N 59°44' E 023°41'918.3
2018-Feb-16 04:30N 59°42' E 023°23'918.4
2018-Feb-16 04:00N 59°40' E 023°06'2518.4
2018-Feb-16 02:40N 59°35' E 022°18'318.3
2018-Feb-16 02:30N 59°34' E 022°12'918.4
2018-Feb-16 02:00N 59°32' E 021°54'918.4
2018-Feb-16 01:30N 59°33' E 021°36'918.5
2018-Feb-16 01:01N 59°35' E 021°18'5113.9
2018-Feb-15 21:19N 60°04' E 019°55'616.4
2018-Feb-15 20:58N 59°59' E 019°48'817.2
2018-Feb-15 20:30N 59°54' E 019°37'917.2
2018-Feb-15 20:00N 59°47' E 019°25'917.0
2018-Feb-15 19:30N 59°44' E 019°10'816.1
2018-Feb-15 19:00N 59°40' E 018°56'510.7
2018-Feb-15 18:30N 59°36' E 018°47'611.9
2018-Feb-15 18:00N 59°33' E 018°37'610.1
2018-Feb-15 17:23N 59°30' E 018°28'411.3
2018-Feb-15 17:00N 59°26' E 018°23'4 8.5
2018-Feb-15 16:30N 59°21' E 018°25'510.0
2018-Feb-15 16:01N 59°22' E 018°16'510.3
2018-Feb-15 15:30N 59°19' E 018°07'0 0.8
2018-Feb-15 14:58N 59°19' E 018°06'0 0.0
2018-Feb-15 14:30N 59°19' E 018°06'0 0.0
2018-Feb-15 14:00N 59°19' E 018°06'0 0.0
2018-Feb-15 13:30N 59°19' E 018°06'0 0.0
2018-Feb-15 13:00N 59°19' E 018°06'0 0.0
2018-Feb-15 12:30N 59°19' E 018°06'0 0.0
2018-Feb-15 12:00N 59°19' E 018°06'0 0.0
2018-Feb-15 11:30N 59°19' E 018°06'0 0.0
2018-Feb-15 11:00N 59°19' E 018°06'0 0.0
2018-Feb-15 10:30N 59°19' E 018°06'0 0.0
2018-Feb-15 10:00N 59°19' E 018°06'0 0.0
2018-Feb-15 09:30N 59°19' E 018°06'0 0.0
2018-Feb-15 09:01N 59°19' E 018°06'3 6.4
2018-Feb-15 08:30N 59°20' E 018°12'611.2
2018-Feb-15 08:00N 59°22' E 018°22'3 5.6
2018-Feb-15 07:30N 59°24' E 018°27'3 5.4
2018-Feb-15 07:00N 59°26' E 018°29'611.0
2018-Feb-15 06:29N 59°32' E 018°32'510.3
2018-Feb-15 06:00N 59°35' E 018°40'612.2
2018-Feb-15 05:30N 59°38' E 018°51'510.9
2018-Feb-15 05:00N 59°41' E 018°59'815.8
2018-Feb-15 04:30N 59°44' E 019°13'815.5
2018-Feb-15 04:00N 59°48' E 019°26'815.7
2018-Feb-15 03:30N 59°54' E 019°37'815.8
2018-Feb-15 03:00N 59°60' E 019°48'5 5.9
2018-Feb-15 02:05N 60°04' E 019°55'215.1
2018-Feb-15 01:59N 60°03' E 019°53'4316.2
2018-Feb-14 23:20N 59°37' E 021°03'617.5
2018-Feb-14 23:01N 59°36' E 021°14'917.5
2018-Feb-14 22:31N 59°34' E 021°31'1117.5
2018-Feb-14 21:53N 59°32' E 021°52'917.4
2018-Feb-14 21:21N 59°33' E 022°10'2317.4
2018-Feb-14 20:04N 59°37' E 022°54'417.4
2018-Feb-14 19:50N 59°38' E 023°01'617.4
2018-Feb-14 19:29N 59°39' E 023°13'817.4
2018-Feb-14 19:00N 59°41' E 023°29'917.4
2018-Feb-14 18:31N 59°44' E 023°45'917.4
2018-Feb-14 18:01N 59°47' E 024°02'917.4
2018-Feb-14 17:30N 59°49' E 024°19'917.4
2018-Feb-14 16:59N 59°53' E 024°34'817.4
2018-Feb-14 16:30N 59°58' E 024°49'816.5
2018-Feb-14 16:00N 60°04' E 024°58'510.9
2018-Feb-14 15:31N 60°10' E 024°58'0 0.2
2018-Feb-14 15:00N 60°10' E 024°58'0 0.0
2018-Feb-14 14:30N 60°10' E 024°58'0 0.0
2018-Feb-14 14:00N 60°10' E 024°58'0 0.0
2018-Feb-14 13:30N 60°10' E 024°58'0 0.0
2018-Feb-14 13:00N 60°10' E 024°58'0 0.0
2018-Feb-14 12:30N 60°10' E 024°58'  

Dump ship's entire track history